sensor_id;sensor_type;location;lat;lon;timestamp;temperature;humidity
51215;DHT22;63849;47.546;19.254;2023-07-02T00:01:45;21.70;74.50
51215;DHT22;63849;47.546;19.254;2023-07-02T00:04:13;21.70;74.50
51215;DHT22;63849;47.546;19.254;2023-07-02T00:06:43;21.60;74.60
51215;DHT22;63849;47.546;19.254;2023-07-02T00:09:12;21.70;74.70
51215;DHT22;63849;47.546;19.254;2023-07-02T00:11:39;21.70;74.60
51215;DHT22;63849;47.546;19.254;2023-07-02T00:14:06;21.70;74.70
51215;DHT22;63849;47.546;19.254;2023-07-02T00:16:32;21.70;74.50
51215;DHT22;63849;47.546;19.254;2023-07-02T00:18:59;21.70;74.60
51215;DHT22;63849;47.546;19.254;2023-07-02T00:21:26;21.70;74.70
51215;DHT22;63849;47.546;19.254;2023-07-02T00:23:54;21.70;74.70
51215;DHT22;63849;47.546;19.254;2023-07-02T00:26:26;21.70;74.70
51215;DHT22;63849;47.546;19.254;2023-07-02T00:28:56;21.60;74.60
51215;DHT22;63849;47.546;19.254;2023-07-02T00:31:23;21.60;74.90
51215;DHT22;63849;47.546;19.254;2023-07-02T00:33:50;21.60;74.90
51215;DHT22;63849;47.546;19.254;2023-07-02T00:36:16;21.60;75.10
51215;DHT22;63849;47.546;19.254;2023-07-02T00:38:46;21.60;75.40
51215;DHT22;63849;47.546;19.254;2023-07-02T00:41:13;21.60;75.30
51215;DHT22;63849;47.546;19.254;2023-07-02T00:43:39;21.60;75.10
51215;DHT22;63849;47.546;19.254;2023-07-02T00:46:18;21.60;75.10
51215;DHT22;63849;47.546;19.254;2023-07-02T00:51:15;21.60;75.20
51215;DHT22;63849;47.546;19.254;2023-07-02T00:53:43;21.60;75.30
51215;DHT22;63849;47.546;19.254;2023-07-02T00:56:09;21.60;75.40
51215;DHT22;63849;47.546;19.254;2023-07-02T00:58:38;21.60;75.30
51215;DHT22;63849;47.546;19.254;2023-07-02T01:01:05;21.50;75.50
51215;DHT22;63849;47.546;19.254;2023-07-02T01:03:31;21.60;75.40
51215;DHT22;63849;47.546;19.254;2023-07-02T01:05:59;21.50;75.30
51215;DHT22;63849;47.546;19.254;2023-07-02T01:08:25;21.50;75.60
51215;DHT22;63849;47.546;19.254;2023-07-02T01:10:50;21.50;75.50
51215;DHT22;63849;47.546;19.254;2023-07-02T01:13:19;21.50;75.50
51215;DHT22;63849;47.546;19.254;2023-07-02T01:15:47;21.40;75.80
51215;DHT22;63849;47.546;19.254;2023-07-02T01:18:14;21.50;75.60
51215;DHT22;63849;47.546;19.254;2023-07-02T01:20:41;21.40;75.60
51215;DHT22;63849;47.546;19.254;2023-07-02T01:23:08;21.50;75.60
51215;DHT22;63849;47.546;19.254;2023-07-02T01:25:35;21.50;75.60
51215;DHT22;63849;47.546;19.254;2023-07-02T01:28:03;21.50;75.50
51215;DHT22;63849;47.546;19.254;2023-07-02T01:30:29;21.50;75.50
51215;DHT22;63849;47.546;19.254;2023-07-02T01:32:55;21.50;75.60
51215;DHT22;63849;47.546;19.254;2023-07-02T01:35:20;21.40;75.80
51215;DHT22;63849;47.546;19.254;2023-07-02T01:37:46;21.40;75.80
51215;DHT22;63849;47.546;19.254;2023-07-02T01:40:13;21.40;76.00
51215;DHT22;63849;47.546;19.254;2023-07-02T01:42:38;21.40;76.00
51215;DHT22;63849;47.546;19.254;2023-07-02T01:45:05;21.40;76.10
51215;DHT22;63849;47.546;19.254;2023-07-02T01:47:31;21.40;76.00
51215;DHT22;63849;47.546;19.254;2023-07-02T01:49:57;21.40;76.10
51215;DHT22;63849;47.546;19.254;2023-07-02T01:52:22;21.40;76.10
51215;DHT22;63849;47.546;19.254;2023-07-02T01:54:48;21.40;76.00
51215;DHT22;63849;47.546;19.254;2023-07-02T01:57:15;21.40;75.90
51215;DHT22;63849;47.546;19.254;2023-07-02T01:59:40;21.40;75.90
51215;DHT22;63849;47.546;19.254;2023-07-02T02:02:06;21.40;76.00
51215;DHT22;63849;47.546;19.254;2023-07-02T02:04:32;21.40;75.70
51215;DHT22;63849;47.546;19.254;2023-07-02T02:06:58;21.30;76.00
51215;DHT22;63849;47.546;19.254;2023-07-02T02:09:24;21.30;76.00
51215;DHT22;63849;47.546;19.254;2023-07-02T02:11:50;21.20;76.00
51215;DHT22;63849;47.546;19.254;2023-07-02T02:14:17;21.20;76.10
51215;DHT22;63849;47.546;19.254;2023-07-02T02:16:44;21.20;76.00
51215;DHT22;63849;47.546;19.254;2023-07-02T02:19:11;21.20;76.00
51215;DHT22;63849;47.546;19.254;2023-07-02T02:21:38;21.10;76.20
51215;DHT22;63849;47.546;19.254;2023-07-02T02:24:06;21.10;76.30
51215;DHT22;63849;47.546;19.254;2023-07-02T02:26:34;21.10;76.20
51215;DHT22;63849;47.546;19.254;2023-07-02T02:29:00;21.00;76.30
51215;DHT22;63849;47.546;19.254;2023-07-02T02:31:26;21.00;76.30
51215;DHT22;63849;47.546;19.254;2023-07-02T02:33:52;21.00;76.30
51215;DHT22;63849;47.546;19.254;2023-07-02T02:36:18;21.00;76.20
51215;DHT22;63849;47.546;19.254;2023-07-02T02:38:43;20.90;76.20
51215;DHT22;63849;47.546;19.254;2023-07-02T02:41:09;20.90;76.00
51215;DHT22;63849;47.546;19.254;2023-07-02T02:43:35;20.90;76.10
51215;DHT22;63849;47.546;19.254;2023-07-02T02:46:01;20.90;76.00
51215;DHT22;63849;47.546;19.254;2023-07-02T02:48:27;20.90;75.90
51215;DHT22;63849;47.546;19.254;2023-07-02T02:50:52;20.90;76.20
51215;DHT22;63849;47.546;19.254;2023-07-02T02:53:18;20.90;75.90
51215;DHT22;63849;47.546;19.254;2023-07-02T02:55:44;20.90;75.60
51215;DHT22;63849;47.546;19.254;2023-07-02T02:58:10;20.90;75.80
51215;DHT22;63849;47.546;19.254;2023-07-02T03:00:36;20.80;75.90
51215;DHT22;63849;47.546;19.254;2023-07-02T03:03:07;20.90;76.00
51215;DHT22;63849;47.546;19.254;2023-07-02T03:05:33;20.90;76.00
51215;DHT22;63849;47.546;19.254;2023-07-02T03:07:59;20.80;75.80
51215;DHT22;63849;47.546;19.254;2023-07-02T03:10:24;20.80;75.50
51215;DHT22;63849;47.546;19.254;2023-07-02T03:12:50;20.80;75.60
51215;DHT22;63849;47.546;19.254;2023-07-02T03:15:16;20.90;75.10
51215;DHT22;63849;47.546;19.254;2023-07-02T03:17:43;20.90;74.90
51215;DHT22;63849;47.546;19.254;2023-07-02T03:20:09;20.90;74.80
51215;DHT22;63849;47.546;19.254;2023-07-02T03:22:35;20.80;74.60
51215;DHT22;63849;47.546;19.254;2023-07-02T03:25:01;20.90;74.20
51215;DHT22;63849;47.546;19.254;2023-07-02T03:27:27;20.90;73.90
51215;DHT22;63849;47.546;19.254;2023-07-02T03:29:53;20.90;73.70
51215;DHT22;63849;47.546;19.254;2023-07-02T03:32:19;20.90;73.80
51215;DHT22;63849;47.546;19.254;2023-07-02T03:34:44;20.90;73.70
51215;DHT22;63849;47.546;19.254;2023-07-02T03:37:10;20.90;73.50
51215;DHT22;63849;47.546;19.254;2023-07-02T03:39:36;20.90;73.80
51215;DHT22;63849;47.546;19.254;2023-07-02T03:42:02;20.90;73.70
51215;DHT22;63849;47.546;19.254;2023-07-02T03:44:27;20.90;73.20
51215;DHT22;63849;47.546;19.254;2023-07-02T03:46:54;21.00;73.20
51215;DHT22;63849;47.546;19.254;2023-07-02T03:49:20;21.00;73.40
51215;DHT22;63849;47.546;19.254;2023-07-02T03:51:45;21.10;73.20
51215;DHT22;63849;47.546;19.254;2023-07-02T03:54:11;21.10;73.10
51215;DHT22;63849;47.546;19.254;2023-07-02T03:56:37;21.20;72.80
51215;DHT22;63849;47.546;19.254;2023-07-02T03:59:04;21.30;73.10
51215;DHT22;63849;47.546;19.254;2023-07-02T04:01:29;21.30;72.80
51215;DHT22;63849;47.546;19.254;2023-07-02T04:03:56;21.40;72.80
51215;DHT22;63849;47.546;19.254;2023-07-02T04:06:22;21.40;72.60
51215;DHT22;63849;47.546;19.254;2023-07-02T04:08:48;21.40;72.60
51215;DHT22;63849;47.546;19.254;2023-07-02T04:11:14;21.40;72.50
51215;DHT22;63849;47.546;19.254;2023-07-02T04:13:40;21.50;72.20
51215;DHT22;63849;47.546;19.254;2023-07-02T04:16:06;21.60;71.80
51215;DHT22;63849;47.546;19.254;2023-07-02T04:18:32;21.60;71.70
51215;DHT22;63849;47.546;19.254;2023-07-02T04:20:58;21.60;71.50
51215;DHT22;63849;47.546;19.254;2023-07-02T04:23:25;21.80;71.00
51215;DHT22;63849;47.546;19.254;2023-07-02T04:25:50;21.80;71.00
51215;DHT22;63849;47.546;19.254;2023-07-02T04:28:16;21.90;70.30
51215;DHT22;63849;47.546;19.254;2023-07-02T04:30:42;22.00;69.40
51215;DHT22;63849;47.546;19.254;2023-07-02T04:33:08;22.00;69.00
51215;DHT22;63849;47.546;19.254;2023-07-02T04:35:34;22.00;69.20
51215;DHT22;63849;47.546;19.254;2023-07-02T04:38:01;22.10;69.00
51215;DHT22;63849;47.546;19.254;2023-07-02T04:40:27;22.20;68.80
51215;DHT22;63849;47.546;19.254;2023-07-02T04:42:53;22.30;68.60
51215;DHT22;63849;47.546;19.254;2023-07-02T04:45:27;22.40;67.60
51215;DHT22;63849;47.546;19.254;2023-07-02T04:48:01;22.40;67.90
51215;DHT22;63849;47.546;19.254;2023-07-02T04:50:26;22.40;67.60
51215;DHT22;63849;47.546;19.254;2023-07-02T04:52:52;22.50;67.60
51215;DHT22;63849;47.546;19.254;2023-07-02T04:55:18;22.60;67.60
51215;DHT22;63849;47.546;19.254;2023-07-02T04:57:44;22.60;67.20
51215;DHT22;63849;47.546;19.254;2023-07-02T05:00:11;22.70;67.40
51215;DHT22;63849;47.546;19.254;2023-07-02T05:02:38;22.80;67.40
51215;DHT22;63849;47.546;19.254;2023-07-02T05:05:04;22.80;67.30
51215;DHT22;63849;47.546;19.254;2023-07-02T05:07:30;22.90;67.20
51215;DHT22;63849;47.546;19.254;2023-07-02T05:09:56;23.10;66.70
51215;DHT22;63849;47.546;19.254;2023-07-02T05:12:23;23.10;66.10
51215;DHT22;63849;47.546;19.254;2023-07-02T05:14:49;23.30;65.80
51215;DHT22;63849;47.546;19.254;2023-07-02T05:17:15;23.60;64.50
51215;DHT22;63849;47.546;19.254;2023-07-02T05:19:41;23.90;63.40
51215;DHT22;63849;47.546;19.254;2023-07-02T05:22:08;24.20;62.90
51215;DHT22;63849;47.546;19.254;2023-07-02T05:24:34;24.50;62.60
51215;DHT22;63849;47.546;19.254;2023-07-02T05:27:00;25.00;61.10
51215;DHT22;63849;47.546;19.254;2023-07-02T05:29:26;25.40;58.90
51215;DHT22;63849;47.546;19.254;2023-07-02T05:31:52;25.50;58.20
51215;DHT22;63849;47.546;19.254;2023-07-02T05:34:17;25.50;58.00
51215;DHT22;63849;47.546;19.254;2023-07-02T05:36:43;25.40;58.40
51215;DHT22;63849;47.546;19.254;2023-07-02T05:39:09;25.50;57.80
51215;DHT22;63849;47.546;19.254;2023-07-02T05:41:35;26.00;57.50
51215;DHT22;63849;47.546;19.254;2023-07-02T05:44:01;26.00;57.60
51215;DHT22;63849;47.546;19.254;2023-07-02T05:46:26;26.40;57.30
51215;DHT22;63849;47.546;19.254;2023-07-02T05:48:52;26.60;55.90
51215;DHT22;63849;47.546;19.254;2023-07-02T05:51:22;26.90;56.30
51215;DHT22;63849;47.546;19.254;2023-07-02T05:53:48;27.40;53.60
51215;DHT22;63849;47.546;19.254;2023-07-02T05:56:14;28.10;52.40
51215;DHT22;63849;47.546;19.254;2023-07-02T05:58:39;28.50;51.20
51215;DHT22;63849;47.546;19.254;2023-07-02T06:01:05;28.20;51.10
51215;DHT22;63849;47.546;19.254;2023-07-02T06:03:32;27.90;52.30
51215;DHT22;63849;47.546;19.254;2023-07-02T06:05:58;27.40;52.70
51215;DHT22;63849;47.546;19.254;2023-07-02T06:08:24;27.00;52.40
51215;DHT22;63849;47.546;19.254;2023-07-02T06:10:50;26.80;52.00
51215;DHT22;63849;47.546;19.254;2023-07-02T06:13:16;26.70;53.50
51215;DHT22;63849;47.546;19.254;2023-07-02T06:15:42;26.70;53.10
51215;DHT22;63849;47.546;19.254;2023-07-02T06:18:08;26.90;53.20
51215;DHT22;63849;47.546;19.254;2023-07-02T06:20:34;27.30;52.30
51215;DHT22;63849;47.546;19.254;2023-07-02T06:22:59;27.50;51.80
51215;DHT22;63849;47.546;19.254;2023-07-02T06:25:26;27.60;51.60
51215;DHT22;63849;47.546;19.254;2023-07-02T06:27:52;28.00;49.90
51215;DHT22;63849;47.546;19.254;2023-07-02T06:30:21;28.90;48.00
51215;DHT22;63849;47.546;19.254;2023-07-02T06:32:47;29.90;45.50
51215;DHT22;63849;47.546;19.254;2023-07-02T06:35:13;29.90;45.30
51215;DHT22;63849;47.546;19.254;2023-07-02T06:37:39;30.60;45.70
51215;DHT22;63849;47.546;19.254;2023-07-02T06:40:05;31.20;43.40
51215;DHT22;63849;47.546;19.254;2023-07-02T06:42:31;31.70;42.90
51215;DHT22;63849;47.546;19.254;2023-07-02T06:44:58;32.50;41.00
51215;DHT22;63849;47.546;19.254;2023-07-02T06:47:24;32.80;40.70
51215;DHT22;63849;47.546;19.254;2023-07-02T06:49:52;33.20;38.90
51215;DHT22;63849;47.546;19.254;2023-07-02T06:52:18;33.30;39.10
51215;DHT22;63849;47.546;19.254;2023-07-02T06:54:46;33.50;38.80
51215;DHT22;63849;47.546;19.254;2023-07-02T06:57:13;33.80;37.90
51215;DHT22;63849;47.546;19.254;2023-07-02T06:59:39;33.30;37.90
51215;DHT22;63849;47.546;19.254;2023-07-02T07:02:04;32.80;40.40
51215;DHT22;63849;47.546;19.254;2023-07-02T07:04:30;32.70;40.40
51215;DHT22;63849;47.546;19.254;2023-07-02T07:06:56;33.30;39.30
51215;DHT22;63849;47.546;19.254;2023-07-02T07:09:22;33.80;37.80
51215;DHT22;63849;47.546;19.254;2023-07-02T07:11:48;33.00;38.40
51215;DHT22;63849;47.546;19.254;2023-07-02T07:14:14;32.60;39.50
51215;DHT22;63849;47.546;19.254;2023-07-02T07:16:39;32.00;40.20
51215;DHT22;63849;47.546;19.254;2023-07-02T07:19:05;31.40;41.90
51215;DHT22;63849;47.546;19.254;2023-07-02T07:21:35;30.90;42.60
51215;DHT22;63849;47.546;19.254;2023-07-02T07:24:01;30.30;43.80
51215;DHT22;63849;47.546;19.254;2023-07-02T07:26:27;30.30;44.00
51215;DHT22;63849;47.546;19.254;2023-07-02T07:28:52;30.40;43.80
51215;DHT22;63849;47.546;19.254;2023-07-02T07:31:21;30.90;41.70
51215;DHT22;63849;47.546;19.254;2023-07-02T07:33:47;31.90;41.20
51215;DHT22;63849;47.546;19.254;2023-07-02T07:36:12;32.50;40.60
51215;DHT22;63849;47.546;19.254;2023-07-02T07:38:39;33.20;38.00
51215;DHT22;63849;47.546;19.254;2023-07-02T07:41:05;33.50;36.90
51215;DHT22;63849;47.546;19.254;2023-07-02T07:43:31;33.80;38.20
51215;DHT22;63849;47.546;19.254;2023-07-02T07:45:57;33.90;37.10
51215;DHT22;63849;47.546;19.254;2023-07-02T07:48:23;33.90;36.80
51215;DHT22;63849;47.546;19.254;2023-07-02T07:50:49;33.60;36.30
51215;DHT22;63849;47.546;19.254;2023-07-02T07:53:15;33.80;38.00
51215;DHT22;63849;47.546;19.254;2023-07-02T07:55:41;33.70;36.90
51215;DHT22;63849;47.546;19.254;2023-07-02T09:03:14;28.10;43.80
51215;DHT22;63849;47.546;19.254;2023-07-02T09:05:51;28.40;41.40
51215;DHT22;63849;47.546;19.254;2023-07-02T09:08:27;28.40;41.60
51215;DHT22;63849;47.546;19.254;2023-07-02T09:11:15;28.40;43.00
51215;DHT22;63849;47.546;19.254;2023-07-02T09:13:51;28.40;45.10
51215;DHT22;63849;47.546;19.254;2023-07-02T09:16:29;28.50;41.10
51215;DHT22;63849;47.546;19.254;2023-07-02T09:19:01;28.50;43.50
51215;DHT22;63849;47.546;19.254;2023-07-02T09:22:01;28.60;42.10
51215;DHT22;63849;47.546;19.254;2023-07-02T09:24:22;28.70;43.30
51215;DHT22;63849;47.546;19.254;2023-07-02T09:26:54;28.70;44.60
51215;DHT22;63849;47.546;19.254;2023-07-02T09:29:27;28.70;45.20
51215;DHT22;63849;47.546;19.254;2023-07-02T09:32:04;28.90;45.80
51215;DHT22;63849;47.546;19.254;2023-07-02T09:34:34;28.90;45.20
51215;DHT22;63849;47.546;19.254;2023-07-02T09:37:02;29.00;47.20
51215;DHT22;63849;47.546;19.254;2023-07-02T09:39:32;29.10;46.10
51215;DHT22;63849;47.546;19.254;2023-07-02T09:42:00;29.00;45.00
51215;DHT22;63849;47.546;19.254;2023-07-02T09:44:30;28.90;44.30
51215;DHT22;63849;47.546;19.254;2023-07-02T09:47:04;28.80;44.50
51215;DHT22;63849;47.546;19.254;2023-07-02T09:49:43;28.60;43.60
51215;DHT22;63849;47.546;19.254;2023-07-02T09:52:11;28.50;44.70
51215;DHT22;63849;47.546;19.254;2023-07-02T09:54:39;28.60;47.10
51215;DHT22;63849;47.546;19.254;2023-07-02T09:57:05;28.60;46.80
51215;DHT22;63849;47.546;19.254;2023-07-02T09:59:32;28.60;45.80
51215;DHT22;63849;47.546;19.254;2023-07-02T10:01:58;28.50;46.00
51215;DHT22;63849;47.546;19.254;2023-07-02T10:04:24;28.50;46.60
51215;DHT22;63849;47.546;19.254;2023-07-02T10:06:51;28.40;47.10
51215;DHT22;63849;47.546;19.254;2023-07-02T10:09:18;28.40;46.10
51215;DHT22;63849;47.546;19.254;2023-07-02T10:11:45;28.20;46.00
51215;DHT22;63849;47.546;19.254;2023-07-02T10:14:11;28.20;48.00
51215;DHT22;63849;47.546;19.254;2023-07-02T10:16:54;28.10;48.70
